Time;durP1;ratioP1;P1;durP2;ratioP2;P2;SDS_P1;SDS_P2;PMS_P1;PMS_P2;Temp;Humidity;BMP_temperature;BMP_pressure;BME280_temperature;BME280_humidity;BME280_pressure;Samples;Min_cycle;Max_cycle;Signal;HPM_P1;HPM_P2
2021/11/25 00:02:12;;;;;;;36.38;26.85;;;6.30;98.10;;;;;;5054104;28;20473;-57
2021/11/25 00:04:38;;;;;;;33.88;25.40;;;6.40;98.00;;;;;;5054397;28;20033;-58
2021/11/25 00:07:04;;;;;;;29.77;23.67;;;6.40;98.00;;;;;;5053141;28;20468;-57
2021/11/25 00:09:29;;;;;;;25.20;20.40;;;6.30;98.10;;;;;;5052808;28;20033;-59
2021/11/25 00:11:56;;;;;;;27.08;21.05;;;6.30;98.10;;;;;;5053361;28;20125;-55
2021/11/25 00:14:21;;;;;;;28.25;21.58;;;6.20;98.50;;;;;;5053346;28;20037;-56
2021/11/25 00:16:47;;;;;;;26.15;21.08;;;6.30;98.40;;;;;;5052962;28;20500;-60
2021/11/25 00:19:13;;;;;;;25.40;19.73;;;6.30;98.50;;;;;;5054407;28;20029;-59
2021/11/25 00:21:39;;;;;;;25.23;19.23;;;6.10;98.80;;;;;;5053403;28;20056;-58
2021/11/25 00:24:05;;;;;;;24.17;18.67;;;6.00;99.10;;;;;;5054886;28;20045;-57
2021/11/25 00:26:33;;;;;;;25.67;19.52;;;5.90;99.20;;;;;;5054297;28;20120;-59
2021/11/25 00:29:00;;;;;;;23.13;18.83;;;5.80;99.90;;;;;;5050568;28;20044;-53
2021/11/25 00:31:26;;;;;;;28.50;21.70;;;5.90;99.90;;;;;;5052504;28;20114;-55
2021/11/25 00:33:51;;;;;;;23.60;18.65;;;6.00;99.90;;;;;;5033451;28;20021;-54
2021/11/25 00:36:17;;;;;;;21.40;17.25;;;6.00;99.90;;;;;;5044735;28;20534;-56
2021/11/25 00:38:43;;;;;;;19.95;16.40;;;6.00;99.80;;;;;;5048772;28;20029;-58
2021/11/25 00:41:09;;;;;;;21.15;16.75;;;5.90;99.50;;;;;;5047278;28;20025;-53
2021/11/25 00:43:34;;;;;;;19.63;15.98;;;5.80;99.40;;;;;;5046683;28;20508;-54
2021/11/25 00:46:00;;;;;;;22.02;17.10;;;5.40;99.90;;;;;;5044228;28;20389;-58
2021/11/25 00:48:25;;;;;;;22.77;17.27;;;5.10;99.90;;;;;;5045972;28;20124;-59
2021/11/25 00:50:51;;;;;;;23.58;17.23;;;5.10;99.90;;;;;;5044193;28;20041;-54
2021/11/25 00:53:17;;;;;;;21.58;16.35;;;5.10;99.90;;;;;;5040997;28;20069;-56
2021/11/25 00:55:43;;;;;;;20.08;15.52;;;5.00;99.90;;;;;;5042716;28;20392;-60
2021/11/25 00:58:09;;;;;;;20.30;15.80;;;5.00;99.90;;;;;;5043767;28;20507;-58
2021/11/25 01:00:35;;;;;;;19.95;15.25;;;4.90;99.90;;;;;;5043629;28;20038;-61
2021/11/25 01:03:01;;;;;;;19.25;15.13;;;4.80;99.90;;;;;;5045905;28;20033;-58
2021/11/25 01:05:27;;;;;;;18.10;15.15;;;4.80;99.90;;;;;;5057090;28;20033;-59
2021/11/25 01:07:53;;;;;;;18.45;14.73;;;4.90;99.90;;;;;;5063515;28;20029;-61
2021/11/25 01:10:21;;;;;;;19.48;16.15;;;5.10;99.90;;;;;;5062941;28;20044;-62
2021/11/25 01:12:48;;;;;;;17.52;14.48;;;5.10;99.90;;;;;;5072743;28;20032;-63
2021/11/25 01:15:15;;;;;;;18.80;15.45;;;5.10;99.90;;;;;;5056538;28;20037;-63
2021/11/25 01:17:42;;;;;;;18.38;14.93;;;5.10;99.90;;;;;;5066062;28;20037;-65
2021/11/25 01:20:11;;;;;;;18.27;15.15;;;5.10;99.90;;;;;;5061070;28;20096;-61
2021/11/25 01:22:37;;;;;;;17.75;14.40;;;5.10;99.90;;;;;;5071322;28;20032;-61
2021/11/25 01:25:04;;;;;;;19.17;15.35;;;5.10;99.80;;;;;;5055766;28;20432;-61
2021/11/25 01:27:30;;;;;;;17.05;14.38;;;5.10;99.80;;;;;;5067800;28;20404;-61
2021/11/25 01:29:55;;;;;;;19.20;15.18;;;5.10;99.70;;;;;;5060934;28;20120;-61
2021/11/25 01:32:21;;;;;;;17.83;13.95;;;4.90;99.90;;;;;;5060224;28;20071;-62
2021/11/25 01:34:46;;;;;;;18.45;15.02;;;5.00;99.80;;;;;;5068056;28;20037;-61
2021/11/25 01:37:12;;;;;;;17.80;14.77;;;4.90;99.50;;;;;;5055552;28;20029;-60
2021/11/25 01:39:38;;;;;;;18.85;15.40;;;4.80;99.90;;;;;;5064856;28;20037;-61
2021/11/25 01:42:04;;;;;;;18.95;15.07;;;4.70;99.90;;;;;;5062046;28;20024;-62
2021/11/25 01:44:29;;;;;;;19.02;14.77;;;4.70;99.90;;;;;;5072118;28;20100;-61
2021/11/25 01:46:55;;;;;;;18.48;14.70;;;4.60;99.90;;;;;;5055715;28;20048;-58
2021/11/25 01:49:21;;;;;;;18.45;15.05;;;4.60;99.90;;;;;;5070528;28;20040;-61
2021/11/25 01:51:47;;;;;;;19.75;15.65;;;4.60;99.90;;;;;;5064019;28;20036;-61
2021/11/25 01:54:12;;;;;;;18.20;14.32;;;4.70;99.90;;;;;;5063733;28;20062;-60
2021/11/25 01:56:38;;;;;;;19.13;14.38;;;4.80;99.90;;;;;;5055886;28;20047;-62
2021/11/25 01:59:04;;;;;;;20.35;14.75;;;4.90;99.90;;;;;;5068187;28;20029;-62
2021/11/25 02:01:34;;;;;;;17.42;15.23;;;4.90;99.90;;;;;;5056378;28;20028;-61
2021/11/25 02:04:01;;;;;;;18.35;14.55;;;4.90;99.90;;;;;;5061810;28;20544;-61
2021/11/25 02:06:27;;;;;;;17.95;15.02;;;4.90;99.90;;;;;;5064840;28;20098;-61
2021/11/25 02:08:53;;;;;;;17.33;14.70;;;4.90;99.90;;;;;;5055130;28;20678;-61
2021/11/25 02:11:19;;;;;;;18.85;15.45;;;4.90;99.90;;;;;;5067824;28;20052;-63
2021/11/25 02:13:44;;;;;;;19.27;15.32;;;4.90;99.90;;;;;;5058818;28;20112;-61
2021/11/25 02:16:10;;;;;;;19.17;14.65;;;4.90;99.90;;;;;;5060942;28;20467;-62
2021/11/25 02:18:36;;;;;;;20.85;16.02;;;4.90;99.90;;;;;;5051583;28;20157;-62
2021/11/25 02:21:04;;;;;;;19.83;16.17;;;4.90;99.90;;;;;;5067608;28;20172;-61
2021/11/25 02:23:30;;;;;;;18.92;14.93;;;4.90;99.90;;;;;;5067058;28;20044;-60
2021/11/25 02:25:57;;;;;;;18.95;14.93;;;5.00;99.90;;;;;;5060203;28;20032;-59
2021/11/25 02:28:27;;;;;;;20.63;16.38;;;4.80;99.90;;;;;;5059611;28;20033;-62
2021/11/25 02:30:53;;;;;;;17.13;14.75;;;4.90;99.90;;;;;;5067542;28;20115;-61
2021/11/25 02:33:19;;;;;;;19.92;16.23;;;4.80;99.90;;;;;;5054707;28;20027;-62
2021/11/25 02:35:45;;;;;;;21.90;16.20;;;4.60;99.90;;;;;;5064738;28;20037;-61
2021/11/25 02:38:12;;;;;;;19.80;15.77;;;4.40;99.90;;;;;;5061900;28;20118;-63
2021/11/25 02:40:43;;;;;;;19.90;16.15;;;4.20;99.90;;;;;;5057252;28;20033;-61
2021/11/25 02:43:19;;;;;;;20.77;17.05;;;4.20;99.90;;;;;;5070475;28;20079;-61
2021/11/25 02:45:55;;;;;;;20.90;17.38;;;4.10;99.90;;;;;;5064529;28;20528;-62
2021/11/25 02:48:40;;;;;;;21.42;16.88;;;4.00;99.90;;;;;;5063645;28;20041;-60
2021/11/25 02:51:07;;;;;;;22.25;16.55;;;4.20;99.90;;;;;;5068085;28;20044;-62
2021/11/25 02:53:35;;;;;;;24.38;17.58;;;4.20;99.90;;;;;;5055410;28;20028;-61
2021/11/25 02:56:07;;;;;;;22.48;17.48;;;4.20;99.90;;;;;;5062415;28;20112;-61
2021/11/25 02:58:33;;;;;;;24.42;17.58;;;4.30;99.90;;;;;;5064914;28;20056;-59
2021/11/25 03:01:05;;;;;;;24.65;16.35;;;4.40;99.90;;;;;;5053059;28;20428;-61
2021/11/25 03:03:31;;;;;;;22.88;17.63;;;4.50;99.90;;;;;;5066661;28;20063;-60
2021/11/25 03:05:56;;;;;;;22.95;17.88;;;4.50;99.90;;;;;;5058969;28;20485;-64
2021/11/25 03:08:23;;;;;;;24.70;18.55;;;4.50;99.90;;;;;;5059489;28;20100;-62
2021/11/25 03:11:09;;;;;;;26.30;19.52;;;4.30;99.90;;;;;;5065547;28;20039;-61
2021/11/25 03:13:38;;;;;;;24.63;18.38;;;4.20;99.90;;;;;;5042396;28;20039;-59
2021/11/25 03:16:05;;;;;;;25.00;18.75;;;4.00;99.90;;;;;;5061739;28;20082;-61
2021/11/25 03:18:31;;;;;;;24.38;19.02;;;4.00;99.90;;;;;;5064434;28;20029;-62
2021/11/25 03:20:57;;;;;;;28.02;20.92;;;3.80;99.90;;;;;;5054249;28;20460;-60
2021/11/25 03:23:26;;;;;;;24.05;17.85;;;3.90;99.90;;;;;;5055183;28;20082;-60
2021/11/25 03:25:52;;;;;;;25.55;20.30;;;4.00;99.90;;;;;;5063294;28;20112;-60
2021/11/25 03:28:18;;;;;;;25.15;19.30;;;4.00;99.90;;;;;;5062620;28;20032;-60
2021/11/25 03:30:44;;;;;;;26.08;20.02;;;4.10;99.90;;;;;;5058262;28;20124;-57
2021/11/25 03:33:11;;;;;;;26.40;20.40;;;4.10;99.90;;;;;;5070813;28;20040;-61
2021/11/25 03:35:38;;;;;;;26.02;19.70;;;4.00;99.90;;;;;;5060709;28;20056;-62
2021/11/25 03:38:05;;;;;;;24.63;19.70;;;4.00;99.90;;;;;;5064744;28;20086;-61
2021/11/25 03:40:31;;;;;;;26.38;20.25;;;4.00;99.90;;;;;;5067947;28;20116;-60
2021/11/25 03:42:57;;;;;;;26.80;20.85;;;3.90;99.90;;;;;;5073279;28;20033;-62
2021/11/25 03:45:23;;;;;;;28.58;20.33;;;3.90;99.90;;;;;;5070418;28;20078;-61
2021/11/25 03:47:48;;;;;;;27.67;21.38;;;3.90;99.90;;;;;;5061996;28;20047;-60
2021/11/25 03:50:15;;;;;;;27.98;21.33;;;3.90;99.90;;;;;;5063179;28;20120;-61
2021/11/25 03:52:41;;;;;;;28.17;21.00;;;3.90;99.90;;;;;;5069044;28;20040;-62
2021/11/25 03:55:09;;;;;;;29.23;21.45;;;3.90;99.90;;;;;;5060571;28;20041;-61
2021/11/25 03:57:34;;;;;;;25.75;19.65;;;3.90;99.90;;;;;;5069248;28;20032;-62
2021/11/25 04:00:01;;;;;;;29.40;22.73;;;3.80;99.90;;;;;;5062954;28;20029;-61
2021/11/25 04:02:26;;;;;;;29.60;21.75;;;3.80;99.90;;;;;;5061228;28;20036;-60
2021/11/25 04:04:52;;;;;;;28.15;20.88;;;3.70;99.90;;;;;;5070731;28;20028;-62
2021/11/25 04:07:18;;;;;;;28.63;21.45;;;3.80;99.90;;;;;;5057293;28;20186;-63
2021/11/25 04:09:43;;;;;;;30.75;22.10;;;3.80;99.90;;;;;;5066461;28;20124;-62
2021/11/25 04:12:09;;;;;;;29.23;21.23;;;3.80;99.90;;;;;;5064403;28;20133;-60
2021/11/25 04:14:35;;;;;;;28.27;20.35;;;4.00;99.90;;;;;;5059373;28;20451;-62
2021/11/25 04:17:01;;;;;;;29.25;22.27;;;4.10;99.90;;;;;;5068401;28;20385;-61
2021/11/25 04:19:27;;;;;;;26.38;20.65;;;4.20;99.90;;;;;;5057693;28;20050;-64
2021/11/25 04:21:53;;;;;;;26.65;21.23;;;4.20;99.90;;;;;;5072198;28;20391;-62
2021/11/25 04:24:20;;;;;;;27.60;21.58;;;4.20;99.90;;;;;;5061400;28;20031;-63
2021/11/25 04:26:46;;;;;;;32.65;22.52;;;4.20;99.90;;;;;;5068365;28;20058;-61
2021/11/25 04:29:11;;;;;;;28.20;21.85;;;4.20;99.90;;;;;;5056380;28;20083;-61
2021/11/25 04:37:10;;;;;;;28.48;21.08;;;4.20;99.90;;;;;;5056015;28;20396;-63
2021/11/25 04:39:36;;;;;;;29.48;21.67;;;4.30;99.90;;;;;;5066907;28;20037;-61
2021/11/25 04:42:02;;;;;;;30.83;22.40;;;4.30;99.90;;;;;;5061998;28;20024;-64
2021/11/25 04:44:28;;;;;;;28.85;21.40;;;4.40;99.90;;;;;;5072771;28;20252;-61
2021/11/25 04:46:53;;;;;;;28.05;21.75;;;4.20;99.90;;;;;;5056394;28;20032;-60
2021/11/25 04:49:19;;;;;;;29.35;21.00;;;4.20;99.90;;;;;;5070769;28;20543;-61
2021/11/25 04:51:45;;;;;;;28.00;21.08;;;4.30;99.90;;;;;;5065649;28;20113;-59
2021/11/25 04:54:11;;;;;;;28.73;20.58;;;4.30;99.90;;;;;;5063273;28;20029;-62
2021/11/25 04:56:36;;;;;;;29.23;22.77;;;4.40;99.90;;;;;;5058545;28;20039;-63
2021/11/25 04:59:02;;;;;;;30.08;22.67;;;4.40;99.90;;;;;;5067729;28;20056;-61
2021/11/25 05:01:28;;;;;;;27.20;20.60;;;4.40;99.90;;;;;;5056708;28;20474;-63
2021/11/25 05:03:54;;;;;;;26.80;21.23;;;4.40;99.90;;;;;;5064318;28;20116;-60
2021/11/25 05:06:19;;;;;;;27.75;21.23;;;4.40;99.90;;;;;;5064043;28;20078;-61
2021/11/25 05:08:45;;;;;;;27.42;21.33;;;4.40;99.90;;;;;;5072537;28;20124;-64
2021/11/25 05:11:10;;;;;;;30.85;22.05;;;4.30;99.90;;;;;;5055465;28;20127;-61
2021/11/25 05:13:36;;;;;;;27.75;21.02;;;4.20;99.90;;;;;;5071099;28;20040;-62
2021/11/25 05:16:03;;;;;;;27.20;21.52;;;4.20;99.90;;;;;;5061695;28;20488;-63
2021/11/25 05:18:29;;;;;;;27.92;20.70;;;4.20;99.90;;;;;;5065243;28;20024;-61
2021/11/25 05:20:55;;;;;;;28.02;21.83;;;4.20;99.90;;;;;;5054709;28;20044;-61
2021/11/25 05:23:20;;;;;;;27.58;21.50;;;4.30;99.90;;;;;;5055837;28;20024;-61
2021/11/25 05:25:46;;;;;;;31.40;22.02;;;4.30;99.90;;;;;;5065109;28;20044;-58
2021/11/25 05:28:12;;;;;;;26.35;21.05;;;4.40;99.90;;;;;;5063082;28;20063;-60
2021/11/25 05:30:38;;;;;;;30.15;21.83;;;4.40;99.90;;;;;;5057081;28;20118;-60
2021/11/25 05:33:04;;;;;;;26.13;20.02;;;4.50;99.90;;;;;;5068388;28;20403;-62
2021/11/25 05:35:31;;;;;;;31.92;22.83;;;4.40;99.90;;;;;;5056554;28;20407;-62
2021/11/25 05:37:57;;;;;;;31.35;23.98;;;4.40;99.90;;;;;;5063059;28;20060;-62
2021/11/25 05:40:25;;;;;;;31.25;22.98;;;4.30;99.90;;;;;;5062439;28;20032;-62
2021/11/25 05:42:51;;;;;;;32.15;22.75;;;4.30;99.90;;;;;;5069880;28;20107;-60
2021/11/25 05:45:19;;;;;;;29.80;23.20;;;4.20;99.90;;;;;;5067250;28;20184;-60
2021/11/25 05:47:47;;;;;;;35.33;22.77;;;4.30;99.90;;;;;;5058573;28;20442;-61
2021/11/25 05:50:18;;;;;;;31.90;23.10;;;4.30;99.90;;;;;;5070160;28;20199;-61
2021/11/25 05:52:48;;;;;;;32.28;23.75;;;4.20;99.90;;;;;;5055913;28;20476;-62
2021/11/25 05:55:14;;;;;;;28.98;20.92;;;4.30;99.90;;;;;;5068195;28;20561;-61
2021/11/25 05:57:41;;;;;;;31.63;21.15;;;4.30;99.90;;;;;;5057688;28;20032;-60
2021/11/25 06:00:11;;;;;;;28.85;21.73;;;4.20;99.90;;;;;;5059909;28;20051;-63
2021/11/25 06:02:41;;;;;;;28.10;21.63;;;4.30;99.90;;;;;;5054008;28;20045;-62
2021/11/25 06:05:08;;;;;;;28.83;21.88;;;4.30;99.90;;;;;;5050713;28;20082;-62
2021/11/25 06:07:34;;;;;;;28.13;21.90;;;4.40;99.90;;;;;;5056821;28;20036;-63
2021/11/25 06:10:00;;;;;;;28.38;21.95;;;4.30;99.90;;;;;;5062169;28;20029;-62
2021/11/25 06:12:25;;;;;;;28.98;20.90;;;4.40;99.90;;;;;;5063898;28;20075;-62
2021/11/25 06:14:51;;;;;;;28.50;21.17;;;4.30;99.90;;;;;;5054956;28;20126;-64
2021/11/25 06:17:17;;;;;;;27.23;20.42;;;4.40;99.90;;;;;;5066192;28;20032;-62
2021/11/25 06:19:42;;;;;;;29.20;21.13;;;4.40;99.90;;;;;;5065711;28;20033;-61
2021/11/25 06:22:08;;;;;;;26.88;21.20;;;4.40;99.90;;;;;;5052253;28;20036;-63
2021/11/25 06:24:34;;;;;;;26.67;20.92;;;4.40;99.90;;;;;;5066218;28;20064;-62
2021/11/25 06:26:59;;;;;;;30.65;22.77;;;4.50;99.90;;;;;;5056700;28;20037;-63
2021/11/25 06:29:25;;;;;;;28.17;21.02;;;4.40;99.90;;;;;;5067718;28;20049;-62
2021/11/25 06:31:51;;;;;;;29.27;22.00;;;4.40;99.90;;;;;;5060067;28;20039;-62
2021/11/25 06:34:16;;;;;;;29.90;22.42;;;4.50;99.90;;;;;;5060006;28;20025;-62
2021/11/25 06:36:42;;;;;;;30.02;22.30;;;4.40;99.90;;;;;;5067354;28;20040;-62
2021/11/25 06:39:08;;;;;;;36.25;25.77;;;4.40;99.90;;;;;;5055051;28;20473;-64
2021/11/25 06:41:34;;;;;;;35.30;25.52;;;4.40;99.90;;;;;;5071753;28;20078;-63
2021/11/25 06:44:00;;;;;;;33.05;22.25;;;4.40;99.90;;;;;;5072424;28;20111;-61
2021/11/25 06:46:25;;;;;;;35.60;23.17;;;4.40;99.90;;;;;;5059568;28;20060;-61
2021/11/25 06:48:51;;;;;;;32.53;23.00;;;4.40;99.90;;;;;;5066786;28;20448;-61
2021/11/25 06:51:17;;;;;;;31.02;22.77;;;4.40;99.90;;;;;;5067590;28;20037;-62
2021/11/25 06:53:45;;;;;;;29.08;22.48;;;4.40;99.90;;;;;;5058243;28;20078;-62
2021/11/25 06:56:11;;;;;;;34.45;21.80;;;4.40;99.90;;;;;;5060783;28;20040;-64
2021/11/25 06:58:36;;;;;;;70.25;35.95;;;4.40;99.90;;;;;;5065299;28;20028;-61
2021/11/25 07:01:06;;;;;;;53.50;31.23;;;4.40;99.90;;;;;;5054378;28;20061;-62
2021/11/25 07:03:33;;;;;;;35.15;23.60;;;4.40;99.90;;;;;;5040791;28;20392;-61
2021/11/25 07:05:59;;;;;;;32.97;22.10;;;4.40;99.90;;;;;;5045065;28;20030;-61
2021/11/25 07:08:25;;;;;;;29.65;20.73;;;4.40;99.90;;;;;;5043901;28;20036;-60
2021/11/25 07:10:51;;;;;;;30.83;22.02;;;4.50;99.90;;;;;;5042514;28;20128;-62
2021/11/25 07:13:16;;;;;;;29.83;21.75;;;4.40;99.90;;;;;;5035423;28;20044;-62
2021/11/25 07:15:42;;;;;;;29.23;21.52;;;4.20;99.90;;;;;;5052578;28;20036;-62
2021/11/25 07:18:08;;;;;;;30.95;23.60;;;4.20;99.90;;;;;;5074260;28;20040;-63
2021/11/25 07:20:33;;;;;;;31.17;22.25;;;4.20;99.90;;;;;;5051662;28;20086;-61
2021/11/25 07:22:59;;;;;;;29.60;21.63;;;4.20;99.90;;;;;;5050807;28;20029;-61
2021/11/25 07:25:25;;;;;;;29.83;21.67;;;4.20;99.90;;;;;;5040243;28;20059;-61
2021/11/25 07:27:52;;;;;;;32.85;22.67;;;4.10;99.90;;;;;;5044613;28;20384;-62
2021/11/25 07:30:19;;;;;;;29.85;21.17;;;3.90;99.90;;;;;;5042655;28;20033;-61
2021/11/25 07:32:45;;;;;;;35.10;21.92;;;4.00;99.90;;;;;;5038574;28;20126;-62
2021/11/25 07:35:13;;;;;;;33.53;22.70;;;4.00;99.90;;;;;;5057821;28;20024;-61
2021/11/25 07:37:38;;;;;;;34.53;23.02;;;4.00;99.90;;;;;;5056362;28;20041;-62
2021/11/25 07:40:06;;;;;;;37.50;21.42;;;4.10;99.90;;;;;;5052622;28;20039;-62
2021/11/25 07:42:33;;;;;;;33.60;23.20;;;4.20;99.90;;;;;;5052601;28;20031;-61
2021/11/25 07:44:59;;;;;;;38.67;23.58;;;4.30;99.90;;;;;;5042569;28;20037;-61
2021/11/25 07:47:32;;;;;;;38.80;25.73;;;4.50;99.90;;;;;;5035473;28;20044;-63
2021/11/25 07:50:03;;;;;;;36.97;25.27;;;4.50;99.90;;;;;;5045235;28;20090;-61
2021/11/25 07:52:28;;;;;;;30.80;22.33;;;4.50;99.90;;;;;;5055075;28;20107;-61
2021/11/25 07:54:54;;;;;;;35.03;22.00;;;4.40;99.90;;;;;;5054899;28;20412;-58
2021/11/25 07:57:20;;;;;;;35.08;23.98;;;4.30;99.90;;;;;;5053347;28;20362;-64
2021/11/25 07:59:45;;;;;;;34.50;24.63;;;4.30;99.90;;;;;;5041730;28;20100;-61
2021/11/25 08:02:11;;;;;;;29.65;22.30;;;4.30;99.90;;;;;;5034761;28;20064;-63
2021/11/25 08:04:37;;;;;;;31.83;22.05;;;4.10;99.90;;;;;;5035637;28;20520;-61
2021/11/25 08:07:03;;;;;;;27.42;21.08;;;4.10;99.90;;;;;;5035060;28;20757;-61
2021/11/25 08:09:28;;;;;;;31.52;22.23;;;4.10;99.90;;;;;;5034525;28;20041;-62
2021/11/25 08:11:54;;;;;;;28.60;21.17;;;4.10;99.90;;;;;;5035190;28;20037;-63
2021/11/25 08:14:22;;;;;;;32.50;22.45;;;4.20;99.90;;;;;;5035075;28;20385;-64
2021/11/25 08:16:47;;;;;;;31.15;22.17;;;4.10;99.90;;;;;;5033863;28;20041;-62
2021/11/25 08:19:13;;;;;;;28.95;21.20;;;4.10;99.90;;;;;;5032890;28;20041;-61
2021/11/25 08:21:39;;;;;;;30.02;21.52;;;4.00;99.90;;;;;;5040260;28;20036;-60
2021/11/25 08:24:05;;;;;;;32.80;23.13;;;4.00;99.90;;;;;;5053103;28;20397;-62
2021/11/25 08:26:30;;;;;;;31.17;22.35;;;3.90;99.90;;;;;;5054047;28;20103;-63
2021/11/25 08:28:56;;;;;;;36.40;24.38;;;4.00;99.90;;;;;;5054299;28;20063;-62
2021/11/25 08:31:22;;;;;;;36.10;25.08;;;4.00;99.90;;;;;;5067446;28;20043;-63
2021/11/25 08:33:48;;;;;;;36.20;24.05;;;4.00;99.90;;;;;;5073897;28;20394;-65
2021/11/25 08:36:14;;;;;;;29.90;21.63;;;4.00;99.90;;;;;;5074172;28;20039;-61
2021/11/25 08:38:39;;;;;;;31.65;22.33;;;4.00;99.90;;;;;;5073502;28;20021;-61
2021/11/25 08:41:07;;;;;;;36.15;24.17;;;4.00;99.90;;;;;;5072415;28;20409;-61
2021/11/25 08:43:33;;;;;;;32.47;23.27;;;4.10;99.90;;;;;;5036193;28;20476;-64
2021/11/25 08:45:59;;;;;;;38.72;23.92;;;4.10;99.90;;;;;;5054142;28;20087;-62
2021/11/25 08:48:24;;;;;;;39.35;26.40;;;4.20;99.90;;;;;;5053762;28;20054;-61
2021/11/25 08:50:50;;;;;;;33.53;23.02;;;4.20;99.90;;;;;;5053224;28;20032;-63
2021/11/25 08:53:16;;;;;;;36.35;24.92;;;4.20;99.90;;;;;;5053424;28;20380;-60
2021/11/25 08:55:41;;;;;;;39.25;24.58;;;4.20;99.90;;;;;;5053458;28;20033;-62
2021/11/25 08:58:07;;;;;;;41.17;24.13;;;4.40;99.90;;;;;;5052103;28;20037;-63
2021/11/25 09:00:34;;;;;;;31.83;22.25;;;4.40;99.90;;;;;;5052858;28;20037;-62
2021/11/25 09:03:01;;;;;;;36.50;25.75;;;4.50;99.90;;;;;;5053591;28;20064;-60
2021/11/25 09:05:28;;;;;;;37.30;24.95;;;4.50;99.90;;;;;;5053498;28;20032;-62
2021/11/25 09:07:54;;;;;;;33.15;23.13;;;4.50;99.90;;;;;;5036058;28;20037;-63
2021/11/25 09:10:19;;;;;;;31.98;22.85;;;4.50;99.90;;;;;;5053631;28;20063;-63
2021/11/25 09:12:46;;;;;;;35.22;23.25;;;4.50;99.90;;;;;;5049116;28;20419;-62
2021/11/25 09:15:12;;;;;;;35.65;24.33;;;4.50;99.90;;;;;;5051506;28;20041;-63
2021/11/25 09:17:37;;;;;;;37.60;23.65;;;4.50;99.90;;;;;;5045492;28;20033;-62
2021/11/25 09:20:05;;;;;;;37.35;23.10;;;4.60;99.90;;;;;;5041498;28;20093;-64
2021/11/25 09:22:31;;;;;;;31.48;22.52;;;4.60;99.90;;;;;;5052673;28;20373;-62
2021/11/25 09:24:56;;;;;;;32.95;23.15;;;4.60;99.90;;;;;;5053159;28;20086;-62
2021/11/25 09:27:22;;;;;;;43.05;28.45;;;4.70;99.90;;;;;;5053720;28;20481;-61
2021/11/25 09:29:48;;;;;;;37.00;26.35;;;4.60;99.90;;;;;;5066696;28;20591;-62
2021/11/25 09:32:14;;;;;;;39.17;24.23;;;4.70;99.90;;;;;;5053403;28;20021;-61
2021/11/25 09:34:42;;;;;;;33.40;23.67;;;4.60;99.90;;;;;;5053635;28;20037;-61
2021/11/25 09:37:08;;;;;;;31.00;22.50;;;4.50;99.90;;;;;;5053080;28;20032;-62
2021/11/25 09:39:34;;;;;;;29.90;21.50;;;4.30;99.90;;;;;;5048513;28;20484;-64
2021/11/25 09:41:59;;;;;;;33.83;22.80;;;4.20;99.90;;;;;;5052436;28;20032;-63
2021/11/25 09:44:26;;;;;;;31.58;22.25;;;3.90;99.90;;;;;;5053737;28;20025;-60
2021/11/25 09:46:54;;;;;;;33.55;23.73;;;3.90;99.90;;;;;;5047283;28;20021;-63
2021/11/25 09:49:22;;;;;;;32.35;22.92;;;4.00;99.90;;;;;;5043260;28;20040;-62
2021/11/25 09:51:48;;;;;;;32.75;23.17;;;3.90;99.90;;;;;;5040081;28;20029;-63
2021/11/25 09:54:15;;;;;;;32.38;22.98;;;4.00;99.90;;;;;;5040896;28;20033;-61
2021/11/25 09:56:41;;;;;;;41.38;24.33;;;4.10;99.90;;;;;;5045808;28;20029;-62
2021/11/25 09:59:06;;;;;;;33.05;22.73;;;4.10;99.90;;;;;;5044102;28;20087;-62
2021/11/25 10:01:33;;;;;;;31.13;21.80;;;4.20;99.90;;;;;;5049756;28;20041;-64
2021/11/25 10:03:59;;;;;;;31.85;23.17;;;4.30;99.90;;;;;;5052356;28;20079;-62
2021/11/25 10:06:30;;;;;;;31.15;22.02;;;4.20;99.90;;;;;;5052485;28;20044;-61
2021/11/25 10:08:57;;;;;;;35.75;23.00;;;4.30;99.90;;;;;;5042889;28;20029;-62
2021/11/25 10:11:32;;;;;;;34.50;23.70;;;4.40;99.90;;;;;;5037195;28;20558;-63
2021/11/25 10:14:08;;;;;;;33.80;23.08;;;4.30;99.90;;;;;;5045708;28;20025;-62
2021/11/25 10:16:40;;;;;;;35.30;24.33;;;4.30;99.90;;;;;;5040279;28;20029;-62
2021/11/25 10:19:15;;;;;;;39.17;25.52;;;4.30;99.90;;;;;;5043527;28;20090;-62
2021/11/25 10:21:42;;;;;;;;;;;4.40;99.90;;;;;;5039634;28;20034;-61
2021/11/25 10:24:08;;;;;;;30.85;22.23;;;4.40;99.90;;;;;;5040259;28;19909;-61
2021/11/25 10:26:34;;;;;;;33.95;23.15;;;4.40;99.90;;;;;;5041663;28;20120;-61
2021/11/25 10:29:03;;;;;;;37.30;24.52;;;4.40;99.90;;;;;;5040929;28;20037;-62
2021/11/25 10:31:35;;;;;;;39.20;24.67;;;4.40;99.90;;;;;;5039579;28;20053;-62
2021/11/25 10:34:10;;;;;;;32.80;23.60;;;4.30;99.90;;;;;;5043586;28;20056;-61
2021/11/25 10:39:36;;;;;;;36.05;24.63;;;4.40;99.90;;;;;;5074314;28;20036;-62
2021/11/25 10:42:09;;;;;;;40.20;27.90;;;4.50;99.90;;;;;;5058670;28;20029;-64
2021/11/25 10:44:40;;;;;;;32.97;24.17;;;4.60;99.90;;;;;;5056510;28;20036;-62
2021/11/25 10:47:30;;;;;;;37.13;25.25;;;4.70;99.90;;;;;;5054854;28;20044;-62
2021/11/25 10:50:00;;;;;;;33.72;23.83;;;4.60;99.90;;;;;;5055516;28;20029;-61
2021/11/25 10:52:37;;;;;;;33.90;23.92;;;4.60;99.90;;;;;;5055852;28;20033;-61
2021/11/25 10:55:30;;;;;;;37.00;24.08;;;4.50;99.90;;;;;;5055644;28;20089;-64
2021/11/25 10:58:02;;;;;;;34.17;24.08;;;4.50;99.90;;;;;;5054062;28;20041;-61
2021/11/25 11:00:39;;;;;;;34.33;24.20;;;4.50;99.90;;;;;;5054736;28;20082;-62
2021/11/25 11:03:09;;;;;;;32.65;23.58;;;4.40;99.90;;;;;;5055413;28;20033;-62
2021/11/25 11:05:56;;;;;;;32.47;23.35;;;4.30;99.90;;;;;;5055594;28;20043;-62
2021/11/25 11:08:24;;;;;;;31.45;21.25;;;4.30;99.90;;;;;;5051848;28;20045;-64
2021/11/25 11:11:01;;;;;;;33.50;23.15;;;4.50;99.90;;;;;;5034686;28;20041;-61
2021/11/25 11:18:52;;;;;;;27.00;20.58;;;4.50;99.90;;;;;;5078139;28;20493;-61
2021/11/25 11:21:44;;;;;;;27.45;20.00;;;4.60;99.90;;;;;;5070978;28;20056;-61
2021/11/25 11:24:14;;;;;;;26.27;19.88;;;4.40;99.90;;;;;;5055051;28;20067;-62
2021/11/25 11:27:02;;;;;;;24.58;18.88;;;4.40;99.90;;;;;;5053823;28;20388;-61
2021/11/25 11:29:30;;;;;;;25.23;19.08;;;4.40;99.90;;;;;;5053078;28;20435;-61
2021/11/25 11:31:58;;;;;;;25.10;20.13;;;4.40;99.90;;;;;;5041234;28;20032;-61
2021/11/25 11:34:25;;;;;;;24.88;18.73;;;4.40;99.90;;;;;;5036166;28;20512;-61
2021/11/25 11:36:53;;;;;;;24.95;18.67;;;4.50;99.90;;;;;;5034976;28;20112;-60
2021/11/25 11:39:25;;;;;;;25.73;17.95;;;4.40;99.90;;;;;;5034760;28;20033;-61
2021/11/25 11:41:58;;;;;;;27.67;20.35;;;4.40;99.90;;;;;;5034759;28;20037;-60
2021/11/25 11:44:24;;;;;;;23.25;17.85;;;4.50;99.90;;;;;;5035156;28;20163;-60
2021/11/25 11:46:52;;;;;;;22.88;18.05;;;4.50;99.90;;;;;;5034887;28;20034;-60
2021/11/25 11:49:22;;;;;;;23.88;18.15;;;4.50;99.90;;;;;;5034398;28;20151;-61
2021/11/25 11:52:08;;;;;;;23.50;18.48;;;4.50;99.90;;;;;;5033919;28;20087;-62
2021/11/25 11:54:50;;;;;;;26.92;19.23;;;4.50;99.90;;;;;;5019466;28;20566;-65
2021/11/25 11:57:31;;;;;;;25.90;20.08;;;4.50;99.90;;;;;;5032847;28;20123;-60
2021/11/25 11:59:58;;;;;;;23.98;18.52;;;4.50;99.90;;;;;;5052271;28;20017;-63
2021/11/25 12:02:44;;;;;;;25.10;19.15;;;4.50;99.90;;;;;;5054294;28;20044;-61
2021/11/25 12:05:11;;;;;;;23.27;18.40;;;4.30;99.90;;;;;;5054642;28;20044;-60
2021/11/25 12:07:37;;;;;;;25.88;18.90;;;4.20;99.90;;;;;;5054750;28;20115;-60
2021/11/25 12:10:04;;;;;;;23.17;17.38;;;4.30;99.90;;;;;;5054706;28;20515;-58
2021/11/25 12:12:30;;;;;;;21.55;16.40;;;4.20;99.90;;;;;;5055184;28;20044;-56
2021/11/25 12:14:57;;;;;;;22.88;16.98;;;4.30;99.90;;;;;;5072331;28;20416;-60
2021/11/25 12:17:33;;;;;;;19.95;15.93;;;4.50;99.90;;;;;;5072567;28;20055;-60
2021/11/25 12:20:25;;;;;;;21.77;16.80;;;4.40;99.90;;;;;;5073101;28;20167;-62
2021/11/25 12:22:53;;;;;;;22.80;16.50;;;4.40;99.90;;;;;;5057303;28;20056;-60
2021/11/25 12:25:32;;;;;;;22.35;16.48;;;4.30;99.90;;;;;;5056919;28;20033;-62
2021/11/25 12:28:40;;;;;;;19.83;16.52;;;4.40;99.90;;;;;;5056680;28;20484;-60
2021/11/25 12:33:50;;;;;;;16.77;14.43;;;4.40;99.90;;;;;;5032291;28;20041;-62
2021/11/25 12:36:36;;;;;;;18.38;14.95;;;4.40;99.90;;;;;;5034981;28;20034;-63
2021/11/25 12:39:05;;;;;;;18.92;15.73;;;4.40;99.90;;;;;;5033590;28;20041;-63
2021/11/25 12:41:33;;;;;;;16.83;13.70;;;4.30;99.90;;;;;;5034774;28;20029;-61
2021/11/25 12:43:59;;;;;;;15.63;13.48;;;4.40;99.90;;;;;;5038777;28;20102;-60
2021/11/25 12:46:25;;;;;;;19.00;12.57;;;4.40;99.90;;;;;;5053421;28;20477;-60
2021/11/25 12:48:54;;;;;;;13.77;10.95;;;4.40;99.90;;;;;;5050735;28;20032;-61
2021/11/25 12:51:25;;;;;;;13.45;11.73;;;4.30;99.90;;;;;;5043461;28;20033;-63
2021/11/25 12:53:57;;;;;;;16.20;11.73;;;4.30;99.90;;;;;;5042007;28;20393;-64
2021/11/25 12:56:28;;;;;;;13.68;11.02;;;4.20;99.90;;;;;;5053742;28;20025;-62
2021/11/25 12:59:12;;;;;;;17.27;11.25;;;4.40;99.90;;;;;;5037919;28;20061;-62